sensor_id;sensor_type;location;lat;lon;timestamp;temperature;humidity
14053;DHT22;7101;51.600;7.310;2023-07-20T00:02:03;17.20;99.90
14053;DHT22;7101;51.600;7.310;2023-07-20T00:04:33;17.20;99.90
14053;DHT22;7101;51.600;7.310;2023-07-20T00:06:59;17.30;99.90
14053;DHT22;7101;51.600;7.310;2023-07-20T00:09:27;17.30;99.90
14053;DHT22;7101;51.600;7.310;2023-07-20T00:11:56;17.30;99.90
14053;DHT22;7101;51.600;7.310;2023-07-20T00:14:25;17.30;99.90
14053;DHT22;7101;51.600;7.310;2023-07-20T00:16:54;17.30;99.90
14053;DHT22;7101;51.600;7.310;2023-07-20T00:19:22;17.30;99.90
14053;DHT22;7101;51.600;7.310;2023-07-20T00:21:49;17.30;99.90
14053;DHT22;7101;51.600;7.310;2023-07-20T00:24:16;17.30;99.90
14053;DHT22;7101;51.600;7.310;2023-07-20T00:26:44;17.40;99.90
14053;DHT22;7101;51.600;7.310;2023-07-20T00:29:12;17.40;99.90
14053;DHT22;7101;51.600;7.310;2023-07-20T00:31:40;17.50;99.90
14053;DHT22;7101;51.600;7.310;2023-07-20T00:34:07;17.50;99.90
14053;DHT22;7101;51.600;7.310;2023-07-20T00:36:35;17.50;99.90
14053;DHT22;7101;51.600;7.310;2023-07-20T00:39:02;17.50;99.90
14053;DHT22;7101;51.600;7.310;2023-07-20T00:41:29;17.40;99.90
14053;DHT22;7101;51.600;7.310;2023-07-20T00:43:58;17.40;99.90
14053;DHT22;7101;51.600;7.310;2023-07-20T00:46:27;17.30;99.90
14053;DHT22;7101;51.600;7.310;2023-07-20T00:49:01;17.40;99.90
14053;DHT22;7101;51.600;7.310;2023-07-20T00:51:28;17.30;99.90
14053;DHT22;7101;51.600;7.310;2023-07-20T00:53:55;17.30;99.90
14053;DHT22;7101;51.600;7.310;2023-07-20T00:56:22;17.30;99.90
14053;DHT22;7101;51.600;7.310;2023-07-20T00:58:49;17.30;99.90
14053;DHT22;7101;51.600;7.310;2023-07-20T01:01:17;17.30;99.90
14053;DHT22;7101;51.600;7.310;2023-07-20T01:03:45;17.30;99.90
14053;DHT22;7101;51.600;7.310;2023-07-20T01:06:26;17.40;99.90
14053;DHT22;7101;51.600;7.310;2023-07-20T01:09:04;17.40;99.90
14053;DHT22;7101;51.600;7.310;2023-07-20T01:11:38;17.30;99.90
14053;DHT22;7101;51.600;7.310;2023-07-20T01:14:05;17.30;99.90
14053;DHT22;7101;51.600;7.310;2023-07-20T01:16:33;17.30;99.90
14053;DHT22;7101;51.600;7.310;2023-07-20T01:19:02;17.20;99.90
14053;DHT22;7101;51.600;7.310;2023-07-20T01:21:34;17.20;99.90
14053;DHT22;7101;51.600;7.310;2023-07-20T01:27:36;17.20;99.90
14053;DHT22;7101;51.600;7.310;2023-07-20T01:30:41;17.20;99.90
14053;DHT22;7101;51.600;7.310;2023-07-20T01:33:13;17.20;99.90
14053;DHT22;7101;51.600;7.310;2023-07-20T01:35:43;17.20;99.90
14053;DHT22;7101;51.600;7.310;2023-07-20T01:38:13;17.20;99.90
14053;DHT22;7101;51.600;7.310;2023-07-20T01:40:41;17.20;99.90
14053;DHT22;7101;51.600;7.310;2023-07-20T01:43:08;17.20;99.90
14053;DHT22;7101;51.600;7.310;2023-07-20T01:45:36;17.30;99.90
14053;DHT22;7101;51.600;7.310;2023-07-20T01:48:04;17.30;99.90
14053;DHT22;7101;51.600;7.310;2023-07-20T01:50:33;17.30;99.90
14053;DHT22;7101;51.600;7.310;2023-07-20T01:53:00;17.30;99.90
14053;DHT22;7101;51.600;7.310;2023-07-20T01:55:27;17.20;99.90
14053;DHT22;7101;51.600;7.310;2023-07-20T01:57:55;17.20;99.90
14053;DHT22;7101;51.600;7.310;2023-07-20T02:00:22;17.10;99.90
14053;DHT22;7101;51.600;7.310;2023-07-20T02:02:50;17.10;99.90
14053;DHT22;7101;51.600;7.310;2023-07-20T02:05:17;17.10;99.90
14053;DHT22;7101;51.600;7.310;2023-07-20T02:07:45;17.00;99.90
14053;DHT22;7101;51.600;7.310;2023-07-20T02:10:13;17.00;99.90
14053;DHT22;7101;51.600;7.310;2023-07-20T02:12:40;16.90;99.90
14053;DHT22;7101;51.600;7.310;2023-07-20T02:15:08;16.90;99.90
14053;DHT22;7101;51.600;7.310;2023-07-20T02:17:35;16.80;99.90
14053;DHT22;7101;51.600;7.310;2023-07-20T02:20:03;16.80;99.90
14053;DHT22;7101;51.600;7.310;2023-07-20T02:22:30;16.80;99.90
14053;DHT22;7101;51.600;7.310;2023-07-20T02:24:58;16.60;99.90
14053;DHT22;7101;51.600;7.310;2023-07-20T02:27:25;16.50;99.90
14053;DHT22;7101;51.600;7.310;2023-07-20T02:29:52;16.50;99.90
14053;DHT22;7101;51.600;7.310;2023-07-20T02:32:19;16.50;99.90
14053;DHT22;7101;51.600;7.310;2023-07-20T02:34:46;16.50;99.90
14053;DHT22;7101;51.600;7.310;2023-07-20T02:37:13;16.50;99.90
14053;DHT22;7101;51.600;7.310;2023-07-20T02:39:40;16.50;99.90
14053;DHT22;7101;51.600;7.310;2023-07-20T02:42:07;16.50;99.90
14053;DHT22;7101;51.600;7.310;2023-07-20T02:44:34;16.50;99.90
14053;DHT22;7101;51.600;7.310;2023-07-20T02:47:01;16.40;99.90
14053;DHT22;7101;51.600;7.310;2023-07-20T02:49:28;16.40;99.90
14053;DHT22;7101;51.600;7.310;2023-07-20T02:51:55;16.40;99.90
14053;DHT22;7101;51.600;7.310;2023-07-20T02:54:22;16.40;99.90
14053;DHT22;7101;51.600;7.310;2023-07-20T02:56:49;16.40;99.90
14053;DHT22;7101;51.600;7.310;2023-07-20T02:59:20;16.50;99.90
14053;DHT22;7101;51.600;7.310;2023-07-20T03:01:47;16.50;99.90
14053;DHT22;7101;51.600;7.310;2023-07-20T03:04:16;16.50;99.90
14053;DHT22;7101;51.600;7.310;2023-07-20T03:06:43;16.50;99.90
14053;DHT22;7101;51.600;7.310;2023-07-20T03:09:10;16.50;99.90
14053;DHT22;7101;51.600;7.310;2023-07-20T03:11:37;16.40;99.90
14053;DHT22;7101;51.600;7.310;2023-07-20T03:14:04;16.40;99.90
14053;DHT22;7101;51.600;7.310;2023-07-20T03:16:32;16.40;99.90
14053;DHT22;7101;51.600;7.310;2023-07-20T03:18:59;16.30;99.90
14053;DHT22;7101;51.600;7.310;2023-07-20T03:21:26;16.30;99.90
14053;DHT22;7101;51.600;7.310;2023-07-20T03:23:54;16.20;99.90
14053;DHT22;7101;51.600;7.310;2023-07-20T03:26:21;16.20;99.90
14053;DHT22;7101;51.600;7.310;2023-07-20T03:28:49;16.20;99.90
14053;DHT22;7101;51.600;7.310;2023-07-20T03:31:16;16.20;99.90
14053;DHT22;7101;51.600;7.310;2023-07-20T03:33:44;16.20;99.90
14053;DHT22;7101;51.600;7.310;2023-07-20T03:36:11;16.20;99.90
14053;DHT22;7101;51.600;7.310;2023-07-20T03:38:38;16.20;99.90
14053;DHT22;7101;51.600;7.310;2023-07-20T03:41:05;16.20;99.90
14053;DHT22;7101;51.600;7.310;2023-07-20T03:43:32;16.10;99.90
14053;DHT22;7101;51.600;7.310;2023-07-20T03:46:00;16.10;99.90
14053;DHT22;7101;51.600;7.310;2023-07-20T03:48:32;16.10;99.90
14053;DHT22;7101;51.600;7.310;2023-07-20T03:51:00;16.10;99.90
14053;DHT22;7101;51.600;7.310;2023-07-20T03:53:27;16.10;99.90
14053;DHT22;7101;51.600;7.310;2023-07-20T03:55:54;16.10;99.90
14053;DHT22;7101;51.600;7.310;2023-07-20T03:58:21;16.10;99.90
14053;DHT22;7101;51.600;7.310;2023-07-20T04:00:50;16.00;99.90
14053;DHT22;7101;51.600;7.310;2023-07-20T04:03:18;16.00;99.90
14053;DHT22;7101;51.600;7.310;2023-07-20T04:05:45;16.00;99.90
14053;DHT22;7101;51.600;7.310;2023-07-20T04:08:13;16.00;99.90
14053;DHT22;7101;51.600;7.310;2023-07-20T04:10:43;16.00;99.90
14053;DHT22;7101;51.600;7.310;2023-07-20T04:13:13;16.00;99.90
14053;DHT22;7101;51.600;7.310;2023-07-20T04:15:39;16.00;99.90
14053;DHT22;7101;51.600;7.310;2023-07-20T04:18:07;16.00;99.90
14053;DHT22;7101;51.600;7.310;2023-07-20T04:20:33;15.90;99.90
14053;DHT22;7101;51.600;7.310;2023-07-20T04:23:01;15.90;99.90
14053;DHT22;7101;51.600;7.310;2023-07-20T04:25:29;15.90;99.90
14053;DHT22;7101;51.600;7.310;2023-07-20T04:28:05;16.00;99.90
14053;DHT22;7101;51.600;7.310;2023-07-20T04:30:34;16.00;99.90
14053;DHT22;7101;51.600;7.310;2023-07-20T04:33:02;15.80;99.90
14053;DHT22;7101;51.600;7.310;2023-07-20T04:35:49;15.70;99.90
14053;DHT22;7101;51.600;7.310;2023-07-20T04:38:16;15.80;99.90
14053;DHT22;7101;51.600;7.310;2023-07-20T04:40:46;15.90;99.90
14053;DHT22;7101;51.600;7.310;2023-07-20T04:43:13;15.80;99.90
14053;DHT22;7101;51.600;7.310;2023-07-20T04:45:41;15.70;99.90
14053;DHT22;7101;51.600;7.310;2023-07-20T04:48:10;15.60;99.90
14053;DHT22;7101;51.600;7.310;2023-07-20T04:50:41;15.60;99.90
14053;DHT22;7101;51.600;7.310;2023-07-20T04:53:09;15.60;99.90
14053;DHT22;7101;51.600;7.310;2023-07-20T04:55:37;15.60;99.90
14053;DHT22;7101;51.600;7.310;2023-07-20T04:58:06;15.70;99.90
14053;DHT22;7101;51.600;7.310;2023-07-20T05:00:34;15.80;99.90
14053;DHT22;7101;51.600;7.310;2023-07-20T05:03:01;15.70;99.90
14053;DHT22;7101;51.600;7.310;2023-07-20T05:05:30;15.60;99.90
14053;DHT22;7101;51.600;7.310;2023-07-20T05:07:57;15.70;99.90
14053;DHT22;7101;51.600;7.310;2023-07-20T05:10:24;15.80;99.90
14053;DHT22;7101;51.600;7.310;2023-07-20T05:12:51;16.10;99.90
14053;DHT22;7101;51.600;7.310;2023-07-20T05:15:19;16.30;99.90
14053;DHT22;7101;51.600;7.310;2023-07-20T05:17:46;16.40;99.90
14053;DHT22;7101;51.600;7.310;2023-07-20T05:20:14;16.40;99.90
14053;DHT22;7101;51.600;7.310;2023-07-20T05:22:42;16.20;99.90
14053;DHT22;7101;51.600;7.310;2023-07-20T05:25:10;16.30;99.90
14053;DHT22;7101;51.600;7.310;2023-07-20T05:27:38;16.30;99.90
14053;DHT22;7101;51.600;7.310;2023-07-20T05:30:07;16.30;99.90
14053;DHT22;7101;51.600;7.310;2023-07-20T05:32:36;16.60;99.90
14053;DHT22;7101;51.600;7.310;2023-07-20T05:35:04;17.30;99.90
14053;DHT22;7101;51.600;7.310;2023-07-20T05:37:32;17.70;99.90
14053;DHT22;7101;51.600;7.310;2023-07-20T05:39:58;18.10;99.90
14053;DHT22;7101;51.600;7.310;2023-07-20T05:42:25;18.60;99.90
14053;DHT22;7101;51.600;7.310;2023-07-20T05:44:52;19.00;99.90
14053;DHT22;7101;51.600;7.310;2023-07-20T05:47:20;19.00;99.90
14053;DHT22;7101;51.600;7.310;2023-07-20T05:49:49;19.10;99.90
14053;DHT22;7101;51.600;7.310;2023-07-20T05:52:16;19.10;99.90
14053;DHT22;7101;51.600;7.310;2023-07-20T05:54:43;18.70;99.90
14053;DHT22;7101;51.600;7.310;2023-07-20T05:57:10;18.40;99.90
14053;DHT22;7101;51.600;7.310;2023-07-20T05:59:37;18.50;99.90
14053;DHT22;7101;51.600;7.310;2023-07-20T06:02:06;18.20;99.90
14053;DHT22;7101;51.600;7.310;2023-07-20T06:04:34;18.10;99.90
14053;DHT22;7101;51.600;7.310;2023-07-20T06:07:02;17.80;99.90
14053;DHT22;7101;51.600;7.310;2023-07-20T06:09:30;17.90;99.90
14053;DHT22;7101;51.600;7.310;2023-07-20T06:11:57;18.00;99.90
14053;DHT22;7101;51.600;7.310;2023-07-20T06:14:24;18.10;99.90
14053;DHT22;7101;51.600;7.310;2023-07-20T06:16:51;17.80;99.90
14053;DHT22;7101;51.600;7.310;2023-07-20T06:19:18;17.60;99.90
14053;DHT22;7101;51.600;7.310;2023-07-20T06:21:45;17.90;99.90
14053;DHT22;7101;51.600;7.310;2023-07-20T06:24:13;18.00;99.90
14053;DHT22;7101;51.600;7.310;2023-07-20T06:26:40;18.00;99.90
14053;DHT22;7101;51.600;7.310;2023-07-20T06:29:08;17.90;99.90
14053;DHT22;7101;51.600;7.310;2023-07-20T06:31:36;17.70;99.90
14053;DHT22;7101;51.600;7.310;2023-07-20T06:34:03;17.40;99.90
14053;DHT22;7101;51.600;7.310;2023-07-20T06:36:30;17.20;99.90
14053;DHT22;7101;51.600;7.310;2023-07-20T06:38:58;17.30;99.90
14053;DHT22;7101;51.600;7.310;2023-07-20T06:41:30;17.30;99.90
14053;DHT22;7101;51.600;7.310;2023-07-20T06:43:58;18.20;99.90
14053;DHT22;7101;51.600;7.310;2023-07-20T06:46:25;19.70;99.90
14053;DHT22;7101;51.600;7.310;2023-07-20T06:48:52;21.80;99.90
14053;DHT22;7101;51.600;7.310;2023-07-20T06:51:20;22.40;99.90
14053;DHT22;7101;51.600;7.310;2023-07-20T06:53:47;21.90;99.90
14053;DHT22;7101;51.600;7.310;2023-07-20T06:56:14;21.80;99.90
14053;DHT22;7101;51.600;7.310;2023-07-20T06:58:43;22.90;99.90
14053;DHT22;7101;51.600;7.310;2023-07-20T07:01:10;24.70;99.90
14053;DHT22;7101;51.600;7.310;2023-07-20T07:03:36;25.40;99.90
14053;DHT22;7101;51.600;7.310;2023-07-20T07:06:03;25.00;99.90
14053;DHT22;7101;51.600;7.310;2023-07-20T07:08:31;25.50;99.90
14053;DHT22;7101;51.600;7.310;2023-07-20T07:10:58;26.20;99.90
14053;DHT22;7101;51.600;7.310;2023-07-20T07:13:26;24.90;99.90
14053;DHT22;7101;51.600;7.310;2023-07-20T07:15:55;24.20;99.90
14053;DHT22;7101;51.600;7.310;2023-07-20T07:18:23;24.40;99.90
14053;DHT22;7101;51.600;7.310;2023-07-20T07:20:52;25.70;99.90
14053;DHT22;7101;51.600;7.310;2023-07-20T07:23:19;26.00;99.90
14053;DHT22;7101;51.600;7.310;2023-07-20T07:25:47;26.10;99.90
14053;DHT22;7101;51.600;7.310;2023-07-20T07:28:14;26.40;99.90
14053;DHT22;7101;51.600;7.310;2023-07-20T07:30:41;26.20;99.90
14053;DHT22;7101;51.600;7.310;2023-07-20T07:33:11;26.80;99.90
14053;DHT22;7101;51.600;7.310;2023-07-20T07:35:40;26.20;99.90
14053;DHT22;7101;51.600;7.310;2023-07-20T07:38:06;25.50;99.90
14053;DHT22;7101;51.600;7.310;2023-07-20T07:40:33;23.90;99.90
14053;DHT22;7101;51.600;7.310;2023-07-20T07:43:00;23.00;99.90
14053;DHT22;7101;51.600;7.310;2023-07-20T07:45:28;21.90;99.90
14053;DHT22;7101;51.600;7.310;2023-07-20T07:47:54;21.90;99.90
14053;DHT22;7101;51.600;7.310;2023-07-20T07:50:23;22.90;99.90
14053;DHT22;7101;51.600;7.310;2023-07-20T07:52:50;24.30;99.90
14053;DHT22;7101;51.600;7.310;2023-07-20T07:55:17;24.80;99.90
14053;DHT22;7101;51.600;7.310;2023-07-20T07:57:44;23.60;99.90
14053;DHT22;7101;51.600;7.310;2023-07-20T08:00:14;24.30;99.90
14053;DHT22;7101;51.600;7.310;2023-07-20T08:02:44;23.80;99.90
14053;DHT22;7101;51.600;7.310;2023-07-20T08:05:13;23.20;99.90
14053;DHT22;7101;51.600;7.310;2023-07-20T08:07:42;23.90;99.90
14053;DHT22;7101;51.600;7.310;2023-07-20T08:10:09;25.10;99.90
14053;DHT22;7101;51.600;7.310;2023-07-20T08:12:37;25.10;99.90
14053;DHT22;7101;51.600;7.310;2023-07-20T08:15:07;25.60;99.90
14053;DHT22;7101;51.600;7.310;2023-07-20T08:17:35;25.80;99.90
14053;DHT22;7101;51.600;7.310;2023-07-20T08:20:02;25.70;99.90
14053;DHT22;7101;51.600;7.310;2023-07-20T08:22:31;26.30;99.90
14053;DHT22;7101;51.600;7.310;2023-07-20T08:25:00;26.20;99.90
14053;DHT22;7101;51.600;7.310;2023-07-20T08:27:27;26.70;99.90
14053;DHT22;7101;51.600;7.310;2023-07-20T08:29:56;27.00;99.90
14053;DHT22;7101;51.600;7.310;2023-07-20T08:32:23;27.90;99.90
14053;DHT22;7101;51.600;7.310;2023-07-20T08:34:50;27.10;99.90
14053;DHT22;7101;51.600;7.310;2023-07-20T08:37:17;24.80;99.90
14053;DHT22;7101;51.600;7.310;2023-07-20T08:39:44;23.10;99.90
14053;DHT22;7101;51.600;7.310;2023-07-20T08:42:15;21.60;99.90
14053;DHT22;7101;51.600;7.310;2023-07-20T08:44:44;21.10;99.90
14053;DHT22;7101;51.600;7.310;2023-07-20T08:47:12;20.90;99.90
14053;DHT22;7101;51.600;7.310;2023-07-20T08:49:41;22.10;99.90
14053;DHT22;7101;51.600;7.310;2023-07-20T08:52:09;23.80;99.90
14053;DHT22;7101;51.600;7.310;2023-07-20T08:54:36;25.40;99.90
14053;DHT22;7101;51.600;7.310;2023-07-20T08:57:04;26.30;99.90
14053;DHT22;7101;51.600;7.310;2023-07-20T08:59:35;27.30;99.90
14053;DHT22;7101;51.600;7.310;2023-07-20T09:02:04;27.90;99.90
14053;DHT22;7101;51.600;7.310;2023-07-20T09:04:32;27.50;97.30
14053;DHT22;7101;51.600;7.310;2023-07-20T09:06:59;27.30;99.90
14053;DHT22;7101;51.600;7.310;2023-07-20T09:09:28;26.80;98.80
14053;DHT22;7101;51.600;7.310;2023-07-20T09:11:55;25.20;99.90
14053;DHT22;7101;51.600;7.310;2023-07-20T09:14:23;23.60;99.90
14053;DHT22;7101;51.600;7.310;2023-07-20T09:16:53;22.70;99.90
14053;DHT22;7101;51.600;7.310;2023-07-20T09:19:21;22.30;99.90
14053;DHT22;7101;51.600;7.310;2023-07-20T09:21:49;22.30;99.90
14053;DHT22;7101;51.600;7.310;2023-07-20T09:24:18;23.10;99.90
14053;DHT22;7101;51.600;7.310;2023-07-20T09:26:46;23.50;99.90
14053;DHT22;7101;51.600;7.310;2023-07-20T09:29:14;24.40;99.90
14053;DHT22;7101;51.600;7.310;2023-07-20T09:31:42;25.40;99.90
14053;DHT22;7101;51.600;7.310;2023-07-20T09:34:10;24.90;99.90
14053;DHT22;7101;51.600;7.310;2023-07-20T09:36:37;24.60;99.90
14053;DHT22;7101;51.600;7.310;2023-07-20T09:39:04;23.80;99.90
14053;DHT22;7101;51.600;7.310;2023-07-20T09:41:40;22.60;99.90
14053;DHT22;7101;51.600;7.310;2023-07-20T09:44:10;23.10;99.90
14053;DHT22;7101;51.600;7.310;2023-07-20T09:46:45;23.50;99.90
14053;DHT22;7101;51.600;7.310;2023-07-20T09:49:14;24.00;99.90
14053;DHT22;7101;51.600;7.310;2023-07-20T09:51:41;24.50;99.90
14053;DHT22;7101;51.600;7.310;2023-07-20T09:54:10;24.50;99.90
14053;DHT22;7101;51.600;7.310;2023-07-20T09:56:38;24.40;99.90
14053;DHT22;7101;51.600;7.310;2023-07-20T09:59:06;23.40;99.90
14053;DHT22;7101;51.600;7.310;2023-07-20T10:01:34;22.40;99.90
14053;DHT22;7101;51.600;7.310;2023-07-20T10:04:03;22.10;99.90
14053;DHT22;7101;51.600;7.310;2023-07-20T10:06:35;21.60;99.90
14053;DHT22;7101;51.600;7.310;2023-07-20T10:09:06;21.90;99.90
14053;DHT22;7101;51.600;7.310;2023-07-20T10:11:40;22.40;99.90
14053;DHT22;7101;51.600;7.310;2023-07-20T10:14:10;23.30;99.90
14053;DHT22;7101;51.600;7.310;2023-07-20T10:16:41;23.70;99.90
14053;DHT22;7101;51.600;7.310;2023-07-20T10:19:20;23.70;99.90
14053;DHT22;7101;51.600;7.310;2023-07-20T10:21:56;23.00;99.90
14053;DHT22;7101;51.600;7.310;2023-07-20T10:24:23;23.40;99.90
14053;DHT22;7101;51.600;7.310;2023-07-20T10:26:51;23.50;99.90
14053;DHT22;7101;51.600;7.310;2023-07-20T10:29:18;23.60;99.90
14053;DHT22;7101;51.600;7.310;2023-07-20T10:31:45;24.00;99.90
14053;DHT22;7101;51.600;7.310;2023-07-20T10:34:13;23.10;99.90
14053;DHT22;7101;51.600;7.310;2023-07-20T10:36:44;22.80;99.90
14053;DHT22;7101;51.600;7.310;2023-07-20T10:39:23;22.40;99.90
14053;DHT22;7101;51.600;7.310;2023-07-20T10:42:06;22.70;99.90
14053;DHT22;7101;51.600;7.310;2023-07-20T10:44:34;23.40;99.90
14053;DHT22;7101;51.600;7.310;2023-07-20T10:47:08;24.10;99.90
14053;DHT22;7101;51.600;7.310;2023-07-20T10:49:59;24.90;99.90
14053;DHT22;7101;51.600;7.310;2023-07-20T10:52:26;25.70;99.90
14053;DHT22;7101;51.600;7.310;2023-07-20T10:55:15;25.70;99.90
14053;DHT22;7101;51.600;7.310;2023-07-20T10:58:10;25.40;92.00
14053;DHT22;7101;51.600;7.310;2023-07-20T11:00:38;25.20;92.50
14053;DHT22;7101;51.600;7.310;2023-07-20T11:03:27;23.70;91.90
14053;DHT22;7101;51.600;7.310;2023-07-20T11:05:56;24.10;93.50
14053;DHT22;7101;51.600;7.310;2023-07-20T11:08:38;24.30;95.40
14053;DHT22;7101;51.600;7.310;2023-07-20T11:11:24;24.60;90.80
14053;DHT22;7101;51.600;7.310;2023-07-20T11:13:56;24.80;91.50
14053;DHT22;7101;51.600;7.310;2023-07-20T11:16:42;25.00;94.50
14053;DHT22;7101;51.600;7.310;2023-07-20T11:19:16;24.90;90.50
14053;DHT22;7101;51.600;7.310;2023-07-20T11:21:47;24.80;85.30
14053;DHT22;7101;51.600;7.310;2023-07-20T11:24:16;24.90;84.90
14053;DHT22;7101;51.600;7.310;2023-07-20T11:26:46;24.90;86.10
14053;DHT22;7101;51.600;7.310;2023-07-20T11:29:15;24.90;83.00
14053;DHT22;7101;51.600;7.310;2023-07-20T11:31:43;24.50;77.50
14053;DHT22;7101;51.600;7.310;2023-07-20T11:34:12;24.20;85.20
14053;DHT22;7101;51.600;7.310;2023-07-20T11:36:40;24.60;86.80
14053;DHT22;7101;51.600;7.310;2023-07-20T11:39:10;24.80;89.20
14053;DHT22;7101;51.600;7.310;2023-07-20T11:41:39;25.10;90.60
14053;DHT22;7101;51.600;7.310;2023-07-20T11:44:11;24.60;86.40
14053;DHT22;7101;51.600;7.310;2023-07-20T11:46:41;24.20;81.20
14053;DHT22;7101;51.600;7.310;2023-07-20T11:49:09;24.40;79.50
14053;DHT22;7101;51.600;7.310;2023-07-20T11:51:36;23.40;79.40
14053;DHT22;7101;51.600;7.310;2023-07-20T11:54:05;22.90;94.90
14053;DHT22;7101;51.600;7.310;2023-07-20T11:56:32;23.10;91.00
14053;DHT22;7101;51.600;7.310;2023-07-20T11:58:59;23.50;88.90
14053;DHT22;7101;51.600;7.310;2023-07-20T12:01:33;23.50;87.50
14053;DHT22;7101;51.600;7.310;2023-07-20T12:04:01;24.00;93.00
14053;DHT22;7101;51.600;7.310;2023-07-20T12:06:35;24.30;84.80
14053;DHT22;7101;51.600;7.310;2023-07-20T12:09:03;24.80;87.00
14053;DHT22;7101;51.600;7.310;2023-07-20T12:11:34;25.00;81.80
14053;DHT22;7101;51.600;7.310;2023-07-20T12:14:03;24.60;81.90
14053;DHT22;7101;51.600;7.310;2023-07-20T12:16:30;23.90;89.80
14053;DHT22;7101;51.600;7.310;2023-07-20T12:19:03;23.80;86.80
14053;DHT22;7101;51.600;7.310;2023-07-20T12:21:30;24.10;89.90
14053;DHT22;7101;51.600;7.310;2023-07-20T12:23:58;24.30;82.90
14053;DHT22;7101;51.600;7.310;2023-07-20T12:26:26;24.30;88.90
14053;DHT22;7101;51.600;7.310;2023-07-20T12:28:56;24.60;85.60
14053;DHT22;7101;51.600;7.310;2023-07-20T12:31:25;24.50;80.10
14053;DHT22;7101;51.600;7.310;2023-07-20T12:33:53;24.50;84.00
14053;DHT22;7101;51.600;7.310;2023-07-20T12:36:22;25.10;91.20
14053;DHT22;7101;51.600;7.310;2023-07-20T12:38:49;25.50;85.40
14053;DHT22;7101;51.600;7.310;2023-07-20T12:41:17;25.60;79.20
14053;DHT22;7101;51.600;7.310;2023-07-20T12:43:45;25.30;80.20
14053;DHT22;7101;51.600;7.310;2023-07-20T12:46:13;24.50;77.30
14053;DHT22;7101;51.600;7.310;2023-07-20T12:48:40;24.20;74.60
14053;DHT22;7101;51.600;7.310;2023-07-20T12:51:09;23.90;79.60
14053;DHT22;7101;51.600;7.310;2023-07-20T12:53:38;23.20;79.30
14053;DHT22;7101;51.600;7.310;2023-07-20T12:56:05;23.30;76.00
14053;DHT22;7101;51.600;7.310;2023-07-20T12:58:33;23.80;74.90
14053;DHT22;7101;51.600;7.310;2023-07-20T13:01:00;24.10;80.60
14053;DHT22;7101;51.600;7.310;2023-07-20T13:03:28;24.10;71.40
14053;DHT22;7101;51.600;7.310;2023-07-20T13:05:56;24.00;74.80
14053;DHT22;7101;51.600;7.310;2023-07-20T13:08:23;23.80;74.50
14053;DHT22;7101;51.600;7.310;2023-07-20T13:10:54;23.30;77.40
14053;DHT22;7101;51.600;7.310;2023-07-20T13:13:20;23.00;89.90
14053;DHT22;7101;51.600;7.310;2023-07-20T13:15:48;22.90;81.10
14053;DHT22;7101;51.600;7.310;2023-07-20T13:18:15;23.20;82.50
14053;DHT22;7101;51.600;7.310;2023-07-20T13:20:43;23.30;78.60
14053;DHT22;7101;51.600;7.310;2023-07-20T13:23:10;23.30;81.60
14053;DHT22;7101;51.600;7.310;2023-07-20T13:25:37;23.10;81.60
14053;DHT22;7101;51.600;7.310;2023-07-20T13:28:06;22.90;85.40
14053;DHT22;7101;51.600;7.310;2023-07-20T13:30:33;22.60;79.90
14053;DHT22;7101;51.600;7.310;2023-07-20T13:33:01;23.10;86.70
14053;DHT22;7101;51.600;7.310;2023-07-20T13:35:28;23.80;85.50
14053;DHT22;7101;51.600;7.310;2023-07-20T13:37:55;24.10;77.30
14053;DHT22;7101;51.600;7.310;2023-07-20T13:40:23;24.50;88.80
14053;DHT22;7101;51.600;7.310;2023-07-20T13:42:50;25.00;74.90
14053;DHT22;7101;51.600;7.310;2023-07-20T13:45:18;24.90;79.60
14053;DHT22;7101;51.600;7.310;2023-07-20T13:47:45;24.10;72.20
14053;DHT22;7101;51.600;7.310;2023-07-20T13:50:12;23.40;75.80
14053;DHT22;7101;51.600;7.310;2023-07-20T13:52:39;23.10;74.70
14053;DHT22;7101;51.600;7.310;2023-07-20T13:55:07;23.30;83.50
14053;DHT22;7101;51.600;7.310;2023-07-20T13:57:34;23.30;84.10
14053;DHT22;7101;51.600;7.310;2023-07-20T14:00:00;23.50;81.80
14053;DHT22;7101;51.600;7.310;2023-07-20T14:02:31;23.80;79.10
14053;DHT22;7101;51.600;7.310;2023-07-20T14:04:58;24.40;77.40
14053;DHT22;7101;51.600;7.310;2023-07-20T14:07:25;24.80;75.20
14053;DHT22;7101;51.600;7.310;2023-07-20T14:09:53;24.90;82.50
14053;DHT22;7101;51.600;7.310;2023-07-20T14:12:19;24.40;70.00
14053;DHT22;7101;51.600;7.310;2023-07-20T14:14:46;24.50;77.10
14053;DHT22;7101;51.600;7.310;2023-07-20T14:17:13;24.40;79.40
14053;DHT22;7101;51.600;7.310;2023-07-20T14:19:42;24.20;72.20
14053;DHT22;7101;51.600;7.310;2023-07-20T14:22:09;23.90;79.40
14053;DHT22;7101;51.600;7.310;2023-07-20T14:24:36;23.80;77.00
14053;DHT22;7101;51.600;7.310;2023-07-20T14:27:03;23.80;73.60
14053;DHT22;7101;51.600;7.310;2023-07-20T14:29:30;24.00;78.40
14053;DHT22;7101;51.600;7.310;2023-07-20T14:31:58;24.10;76.00
14053;DHT22;7101;51.600;7.310;2023-07-20T14:34:25;24.30;80.80
14053;DHT22;7101;51.600;7.310;2023-07-20T14:36:53;24.60;81.20
14053;DHT22;7101;51.600;7.310;2023-07-20T14:39:20;24.70;78.70
14053;DHT22;7101;51.600;7.310;2023-07-20T14:41:48;24.80;79.20
14053;DHT22;7101;51.600;7.310;2023-07-20T14:44:18;24.70;78.10
14053;DHT22;7101;51.600;7.310;2023-07-20T14:46:47;24.90;77.10
14053;DHT22;7101;51.600;7.310;2023-07-20T14:49:14;25.10;79.30
14053;DHT22;7101;51.600;7.310;2023-07-20T14:51:42;24.70;73.40
14053;DHT22;7101;51.600;7.310;2023-07-20T14:54:13;24.20;75.50
14053;DHT22;7101;51.600;7.310;2023-07-20T14:56:49;23.80;75.70
14053;DHT22;7101;51.600;7.310;2023-07-20T14:59:16;23.50;79.00
14053;DHT22;7101;51.600;7.310;2023-07-20T15:01:43;23.60;86.50
14053;DHT22;7101;51.600;7.310;2023-07-20T15:04:11;23.70;83.20
14053;DHT22;7101;51.600;7.310;2023-07-20T15:06:38;23.90;84.60
14053;DHT22;7101;51.600;7.310;2023-07-20T15:09:05;24.10;84.60
14053;DHT22;7101;51.600;7.310;2023-07-20T15:11:37;24.20;81.80
14053;DHT22;7101;51.600;7.310;2023-07-20T15:14:05;24.10;83.50
14053;DHT22;7101;51.600;7.310;2023-07-20T15:16:35;24.20;83.20
14053;DHT22;7101;51.600;7.310;2023-07-20T15:19:02;24.30;82.90
14053;DHT22;7101;51.600;7.310;2023-07-20T15:21:30;24.30;80.00
14053;DHT22;7101;51.600;7.310;2023-07-20T15:23:59;24.50;84.10
14053;DHT22;7101;51.600;7.310;2023-07-20T15:26:26;24.70;79.40
14053;DHT22;7101;51.600;7.310;2023-07-20T15:28:54;25.00;79.80
14053;DHT22;7101;51.600;7.310;2023-07-20T15:31:21;25.50;75.90
14053;DHT22;7101;51.600;7.310;2023-07-20T15:33:49;26.20;78.00
14053;DHT22;7101;51.600;7.310;2023-07-20T15:36:18;26.10;73.70
14053;DHT22;7101;51.600;7.310;2023-07-20T15:38:45;25.90;72.40
14053;DHT22;7101;51.600;7.310;2023-07-20T15:41:12;25.60;75.50
14053;DHT22;7101;51.600;7.310;2023-07-20T15:43:40;25.20;77.10
14053;DHT22;7101;51.600;7.310;2023-07-20T15:49:12;24.70;74.40
14053;DHT22;7101;51.600;7.310;2023-07-20T15:51:39;25.00;76.70
14053;DHT22;7101;51.600;7.310;2023-07-20T15:54:08;25.30;69.90
14053;DHT22;7101;51.600;7.310;2023-07-20T15:56:36;25.20;78.90
14053;DHT22;7101;51.600;7.310;2023-07-20T15:59:03;25.30;78.40
14053;DHT22;7101;51.600;7.310;2023-07-20T16:01:30;25.00;77.00